Depesze METAR lotnisk w Polsce

METAR – format kodowanego raportu o pogodzie używany w meteorologii lotniczej i prognozie pogody. METAR jest akronimem od ang. Meteorological Aerodrome Report. Typowy METAR zawiera informację o temperaturze, ciśnieniu, temperaturze punktu rosy, sile i kierunku wiatru, opadzie, pokrywie chmur, wysokości podstawy chmur, widzialności, lecz może zawierać też inne informacje (np. stan dróg startowych).

Warszawa-Okęcie (EPWA)

METAR = EPWA 261000Z 10009KT CAVOK 29/13 Q1024 NOSIG

STACJA......... EPWA - Warszawa-Okęcie (WAW)
POMIAR......... Mon Aug 26, 12:00 CEST
WIATR.......... wschodni (E) z prędkością 17 km/h
WIDZIALNOŚĆ.... powyżej 10 kilometrów
CHMURY......... bezchmurne niebo
TEMPERATURA.... 29°C
T.PUNKTU ROSY.. 13°C
WILGOTNOŚĆ..... 37%
CIŚNIENIE...... 1024 hPa
CIŚN.BEZWZGL... 1011 hPa
PROGNOZA....... bez nagłych zmian w ciągu 2h

Sprawdź też: Prognoza pogody Warszawa

Warszawa-Modlin (EPMO)

METAR = EPMO 260930Z 08010KT 050V110 CAVOK 27/13 Q1024 =

STACJA......... EPMO - Warszawa-Modlin (WMI)
POMIAR......... Mon Aug 26, 11:30 CEST
WIATR.......... wschodni (E) z prędkością 19 km/h
WIDZIALNOŚĆ.... powyżej 10 kilometrów
CHMURY......... bezchmurne niebo
TEMPERATURA.... 27°C
T.PUNKTU ROSY.. 13°C
WILGOTNOŚĆ..... 42%
INDEX GORĄCA... 27°C
CIŚNIENIE...... 1024 hPa
CIŚN.BEZWZGL... 1012 hPa

Sprawdź też: Prognoza pogody Nowy Dwór Mazowiecki

Kraków-Balice (EPKK)

METAR = EPKK 261000Z 04005KT 360V080 CAVOK 27/20 Q1022

STACJA......... EPKK - Kraków-Balice (KRK)
POMIAR......... Mon Aug 26, 12:00 CEST
WIATR.......... północno-wschodni (NE) z prędkością 9 km/h
WIDZIALNOŚĆ.... powyżej 10 kilometrów
CHMURY......... bezchmurne niebo
TEMPERATURA.... 27°C
T.PUNKTU ROSY.. 20°C
WILGOTNOŚĆ..... 66%
INDEX GORĄCA... 29°C
CIŚNIENIE...... 1022 hPa
CIŚN.BEZWZGL... 995 hPa

Sprawdź też: Prognoza pogody Kraków

Łódź-Lublinek (EPLL)

METAR = EPLL 261000Z 10008KT 060V160 CAVOK 29/15 Q1022

STACJA......... EPLL - Łódź-Lublinek (LCJ)
POMIAR......... Mon Aug 26, 12:00 CEST
WIATR.......... wschodni (E) z prędkością 15 km/h
WIDZIALNOŚĆ.... powyżej 10 kilometrów
CHMURY......... bezchmurne niebo
TEMPERATURA.... 29°C
T.PUNKTU ROSY.. 15°C
WILGOTNOŚĆ..... 43%
INDEX GORĄCA... 29°C
CIŚNIENIE...... 1022 hPa
CIŚN.BEZWZGL... 1001 hPa

Sprawdź też: Prognoza pogody Łódź

Wrocław-Strachowice (EPWR)

METAR = EPWR 261000Z 13007KT 090V160 CAVOK 28/19 Q1021

STACJA......... EPWR - Wrocław-Strachowice (WRO)
POMIAR......... Mon Aug 26, 12:00 CEST
WIATR.......... południowo wschodni (SE) z prędkością 13 km/h
WIDZIALNOŚĆ.... powyżej 10 kilometrów
CHMURY......... bezchmurne niebo
TEMPERATURA.... 28°C
T.PUNKTU ROSY.. 19°C
WILGOTNOŚĆ..... 58%
INDEX GORĄCA... 29°C
CIŚNIENIE...... 1021 hPa
CIŚN.BEZWZGL... 1007 hPa

Sprawdź też: Prognoza pogody Wrocław

Katowice-Pyrzowice (EPKT)

METAR = EPKT 261000Z 11006KT 070V150 CAVOK 28/16 Q1022

STACJA......... EPKT - Katowice-Pyrzowice (KTW)
POMIAR......... Mon Aug 26, 12:00 CEST
WIATR.......... wschodni południowo-wschodni (ESE) z prędkością 11 km/h
WIDZIALNOŚĆ.... powyżej 10 kilometrów
CHMURY......... bezchmurne niebo
TEMPERATURA.... 28°C
T.PUNKTU ROSY.. 16°C
WILGOTNOŚĆ..... 48%
INDEX GORĄCA... 28°C
CIŚNIENIE...... 1022 hPa
CIŚN.BEZWZGL... 988 hPa

Sprawdź też: Prognoza pogody Katowice

Gdańsk (EPGD)

METAR = EPGD 261000Z 10008KT 050V150 CAVOK 26/14 Q1025

STACJA......... EPGD - Gdańsk im. Lecha Wałęsy (GDN)
POMIAR......... Mon Aug 26, 12:00 CEST
WIATR.......... wschodni (E) z prędkością 15 km/h
WIDZIALNOŚĆ.... powyżej 10 kilometrów
CHMURY......... bezchmurne niebo
TEMPERATURA.... 26°C
T.PUNKTU ROSY.. 14°C
WILGOTNOŚĆ..... 48%
CIŚNIENIE...... 1025 hPa
CIŚN.BEZWZGL... 1008 hPa

Sprawdź też: Prognoza pogody Gdańsk

Poznań-Ławica (EPPO)

METAR = EPPO 261000Z 08008KT 060V140 CAVOK 29/17 Q1022

STACJA......... EPPO - Poznań-Ławica (POZ)
POMIAR......... Mon Aug 26, 12:00 CEST
WIATR.......... wschodni (E) z prędkością 15 km/h
WIDZIALNOŚĆ.... powyżej 10 kilometrów
CHMURY......... bezchmurne niebo
TEMPERATURA.... 29°C
T.PUNKTU ROSY.. 17°C
WILGOTNOŚĆ..... 48%
INDEX GORĄCA... 29°C
CIŚNIENIE...... 1022 hPa
CIŚN.BEZWZGL... 1011 hPa

Sprawdź też: Prognoza pogody Poznań

Rzeszów-Jasionka (EPRZ)

METAR = EPRZ 261000Z 08006KT 040V150 CAVOK 27/17 Q1023

STACJA......... EPRZ - Rzeszów-Jasionka (RZE)
POMIAR......... Mon Aug 26, 12:00 CEST
WIATR.......... wschodni (E) z prędkością 11 km/h
WIDZIALNOŚĆ.... powyżej 10 kilometrów
CHMURY......... bezchmurne niebo
TEMPERATURA.... 27°C
T.PUNKTU ROSY.. 17°C
WILGOTNOŚĆ..... 54%
INDEX GORĄCA... 28°C
CIŚNIENIE...... 1023 hPa
CIŚN.BEZWZGL... 999 hPa

Sprawdź też: Prognoza pogody Rzeszów

Szczecin-Goleniów (EPSC)

METAR = EPSC 261000Z 11009KT 080V150 CAVOK 29/14 Q1022

STACJA......... EPSC - Szczecin-Goleniów (SZZ)
POMIAR......... Mon Aug 26, 12:00 CEST
WIATR.......... wschodni południowo-wschodni (ESE) z prędkością 17 km/h
WIDZIALNOŚĆ.... powyżej 10 kilometrów
CHMURY......... bezchmurne niebo
TEMPERATURA.... 29°C
T.PUNKTU ROSY.. 14°C
WILGOTNOŚĆ..... 40%
INDEX GORĄCA... 28°C
CIŚNIENIE...... 1022 hPa
CIŚN.BEZWZGL... 1017 hPa

Sprawdź też: Prognoza pogody Szczecin

Lublin-Świdnik (EPLB)

METAR = EPLB 260930Z 07009KT CAVOK 27/15 Q1024 =

STACJA......... EPLB - Lublin-Świdnik (LUZ)
POMIAR......... Mon Aug 26, 11:30 CEST
WIATR.......... wschodni północno-wschodni (ENE) z prędkością 17 km/h
WIDZIALNOŚĆ.... powyżej 10 kilometrów
CHMURY......... bezchmurne niebo
TEMPERATURA.... 27°C
T.PUNKTU ROSY.. 15°C
WILGOTNOŚĆ..... 48%
INDEX GORĄCA... 27°C
CIŚNIENIE...... 1024 hPa
CIŚN.BEZWZGL... 1001 hPa

Sprawdź też: Prognoza pogody Lublin

Bydgoszcz-Szwederowo (EPBY)

METAR = EPBY 260930Z 09012KT 060V120 CAVOK 27/13 Q1023 =

STACJA......... EPBY - Bydgoszcz-Szwederowo (BZG)
POMIAR......... Mon Aug 26, 11:30 CEST
WIATR.......... wschodni (E) z prędkością 22 km/h
WIDZIALNOŚĆ.... powyżej 10 kilometrów
CHMURY......... bezchmurne niebo
TEMPERATURA.... 27°C
T.PUNKTU ROSY.. 13°C
WILGOTNOŚĆ..... 42%
INDEX GORĄCA... 27°C
CIŚNIENIE...... 1023 hPa
CIŚN.BEZWZGL... 1015 hPa

Sprawdź też: Prognoza pogody Bydgoszcz

Zielona Góra-Babimost (EPZG)

METAR = EPZG 260930Z 05004KT 000V140 CAVOK 27/16 Q1022 =

STACJA......... EPZG - Zielona Góra-Babimost (IEG)
POMIAR......... Mon Aug 26, 11:30 CEST
WIATR.......... północno-wschodni (NE) z prędkością 7 km/h
WIDZIALNOŚĆ.... powyżej 10 kilometrów
CHMURY......... bezchmurne niebo
TEMPERATURA.... 27°C
T.PUNKTU ROSY.. 16°C
WILGOTNOŚĆ..... 51%
INDEX GORĄCA... 28°C
CIŚNIENIE...... 1022 hPa
CIŚN.BEZWZGL... 1015 hPa

Sprawdź też: Prognoza pogody Zielona Góra

Szymany Olsztyn-Mazury (EPSY)

METAR = EPSY 260930Z 13007KT 100V170 CAVOK 26/12 Q1026=

STACJA......... EPSY - Olsztyn-Mazury (SZY)
POMIAR......... Mon Aug 26, 11:30 CEST
WIATR.......... południowo wschodni (SE) z prędkością 13 km/h
WIDZIALNOŚĆ.... powyżej 10 kilometrów
CHMURY......... bezchmurne niebo
TEMPERATURA.... 26°C
T.PUNKTU ROSY.. 12°C
WILGOTNOŚĆ..... 42%
CIŚNIENIE...... 1026 hPa
CIŚN.BEZWZGL... 1010 hPa

Sprawdź też: Prognoza pogody Olsztyn